Time;durP1;ratioP1;P1;durP2;ratioP2;P2;SDS_P1;SDS_P2;PMS_P1;PMS_P2;Temp;Humidity;BMP_temperature;BMP_pressure;BME280_temperature;BME280_humidity;BME280_pressure;Samples;Min_cycle;Max_cycle;Signal;HPM_P1;HPM_P2
2021/11/30 00:02:04;;;;;;;;;;;;;;;;;;5028811;28;20021;-66
2021/11/30 00:04:35;;;;;;;;;;;;;;;;;;5027051;28;19934;-66
2021/11/30 00:07:07;;;;;;;;;;;;;;;;;;5028945;28;19925;-66
2021/11/30 00:12:17;;;;;;;;;;;;;;;;;;5026016;28;19936;-66
2021/11/30 00:14:47;;;;;;;;;;;;;;;;;;5028394;28;19933;-66
2021/11/30 00:17:20;;;;;;;;;;;;;;;;;;5030174;28;19925;-66
2021/11/30 00:19:49;;;;;;;;;;;;;;;;;;5028846;28;19978;-66
2021/11/30 00:22:20;;;;;;;;;;;;;;;;;;5030224;28;20269;-66
2021/11/30 00:24:54;;;;;;;;;;;;;;;;;;5025908;28;19925;-66
2021/11/30 00:27:25;;;;;;;;;;;;;;;;;;5020980;28;19933;-65
2021/11/30 00:29:54;;;;;;;;;;;;;;;;;;5023018;28;19986;-66
2021/11/30 00:32:23;;;;;;;;;;;;;;;;;;5030869;28;19931;-66
2021/11/30 00:34:55;;;;;;;;;;;;;;;;;;5024661;28;19925;-66
2021/11/30 00:37:26;;;;;;;;;;;;;;;;;;5024183;28;19932;-66
2021/11/30 00:39:55;;;;;;;;;;;;;;;;;;5030275;28;19986;-66
2021/11/30 00:42:29;;;;;;;;;;;;;;;;;;5026782;28;19925;-66
2021/11/30 00:45:03;;;;;;;;;;;;;;;;;;5027438;28;19925;-66
2021/11/30 00:47:37;;;;;;;;;;;;;;;;;;5023592;28;19929;-66
2021/11/30 00:50:08;;;;;;;;;;;;;;;;;;5027323;28;19925;-66
2021/11/30 00:52:37;;;;;;;;;;;;;;;;;;5027714;28;19951;-66
2021/11/30 00:55:07;;;;;;;;;;;;;;;;;;5034023;28;19948;-66
2021/11/30 00:57:41;;;;;;;;;;;;;;;;;;5025721;28;20289;-66
2021/11/30 01:00:11;;;;;;;;;;;;;;;;;;5024330;28;20320;-65
2021/11/30 01:02:42;;;;;;;;;;;;;;;;;;5029109;28;19934;-66
2021/11/30 01:05:14;;;;;;;;;;;;;;;;;;5023784;28;19925;-66
2021/11/30 01:07:45;;;;;;;;;;;;;;;;;;5026502;28;20495;-66
2021/11/30 01:10:15;;;;;;;;;;;;;;;;;;5027824;28;19925;-66
2021/11/30 01:12:44;;;;;;;;;;;;;;;;;;5025850;28;19929;-66
2021/11/30 01:15:14;;;;;;;;;;;;;;;;;;5028059;28;20421;-66
2021/11/30 01:17:46;;;;;;;;;;;;;;;;;;5025724;28;20466;-66
2021/11/30 01:20:16;;;;;;;;;;;;;;;;;;5023179;28;19933;-66
2021/11/30 01:22:44;;;;;;;;;;;;;;;;;;5027405;28;19929;-66
2021/11/30 01:25:15;;;;;;;;;;;;;;;;;;5026869;28;19940;-66
2021/11/30 01:27:47;;;;;;;;;;;;;;;;;;5023384;28;19948;-66
2021/11/30 01:30:17;;;;;;;;;;;;;;;;;;5019253;28;20669;-66
2021/11/30 01:32:44;;;;;;;;;;;;;;;;;;5028839;28;19933;-66
2021/11/30 01:35:13;;;;;;;;;;;;;;;;;;5029110;28;19935;-65
2021/11/30 01:37:44;;;;;;;;;;;;;;;;;;5006886;28;19925;-66
2021/11/30 01:40:14;;;;;;;;;;;;;;;;;;5028505;28;19925;-66
2021/11/30 01:42:47;;;;;;;;;;;;;;;;;;5025683;28;20342;-66
2021/11/30 01:50:39;;;;;;;;;;;;;;;;;;5027348;28;19933;-66
2021/11/30 01:53:09;;;;;;;;;;;;;;;;;;5026866;28;20446;-66
2021/11/30 01:55:37;;;;;;;;;;;;;;;;;;5022072;28;19933;-66
2021/11/30 01:58:09;;;;;;;;;;;;;;;;;;5026738;28;19933;-66
2021/11/30 02:00:38;;;;;;;;;;;;;;;;;;5023500;28;19951;-66
2021/11/30 02:03:09;;;;;;;;;;;;;;;;;;5027789;28;20338;-66
2021/11/30 02:05:40;;;;;;;;;;;;;;;;;;5019689;28;19959;-66
2021/11/30 02:08:14;;;;;;;;;;;;;;;;;;5027709;28;20016;-67
2021/11/30 02:10:44;;;;;;;;;;;;;;;;;;5024607;28;20489;-67
2021/11/30 02:13:15;;;;;;;;;;;;;;;;;;5025592;28;19929;-67
2021/11/30 02:15:55;;;;;;;;;;;;;;;;;;5028226;28;20820;-67
2021/11/30 02:18:26;;;;;;;;;;;;;;;;;;5028041;28;20237;-67
2021/11/30 02:20:59;;;;;;;;;;;;;;;;;;5024821;28;19929;-67
2021/11/30 02:23:41;;;;;;;;;;;;;;;;;;5022008;28;19936;-66
2021/11/30 02:26:12;;;;;;;;;;;;;;;;;;5026711;28;19982;-66
2021/11/30 02:28:46;;;;;;;;;;;;;;;;;;5028264;28;19926;-66
2021/11/30 02:31:17;;;;;;;;;;;;;;;;;;5023628;28;19933;-66
2021/11/30 02:34:01;;;;;;;;;;;;;;;;;;5026705;28;20014;-66
2021/11/30 02:36:35;;;;;;;;;;;;;;;;;;5020124;28;19929;-66
2021/11/30 02:39:18;;;;;;;;;;;;;;;;;;5026714;28;19925;-67
2021/11/30 02:41:52;;;;;;;;;;;;;;;;;;5028182;28;20242;-66
2021/11/30 02:44:21;;;;;;;;;;;;;;;;;;5027122;28;19929;-67
2021/11/30 02:46:49;;;;;;;;;;;;;;;;;;5020900;28;19926;-67
2021/11/30 02:49:22;;;;;;;;;;;;;;;;;;5021123;28;19925;-67
2021/11/30 02:51:52;;;;;;;;;;;;;;;;;;5011157;28;19932;-67
2021/11/30 02:54:22;;;;;;;;;;;;;;;;;;5030425;28;19966;-66
2021/11/30 02:56:55;;;;;;;;;;;;;;;;;;5024766;28;19926;-66
2021/11/30 02:59:24;;;;;;;;;;;;;;;;;;5023452;28;19929;-66
2021/11/30 03:01:56;;;;;;;;;;;;;;;;;;5032470;28;19925;-66
2021/11/30 03:04:26;;;;;;;;;;;;;;;;;;5027745;28;20283;-67
2021/11/30 03:06:59;;;;;;;;;;;;;;;;;;5031315;28;20235;-67
2021/11/30 03:09:30;;;;;;;;;;;;;;;;;;5028392;28;19925;-67
2021/11/30 03:12:03;;;;;;;;;;;;;;;;;;5036435;28;19933;-66
2021/11/30 03:14:32;;;;;;;;;;;;;;;;;;5028495;28;20425;-67
2021/11/30 03:17:03;;;;;;;;;;;;;;;;;;5031197;28;19925;-67
2021/11/30 03:19:33;;;;;;;;;;;;;;;;;;5025668;28;19944;-66
2021/11/30 03:22:04;;;;;;;;;;;;;;;;;;5030906;28;19965;-66
2021/11/30 03:24:37;;;;;;;;;;;;;;;;;;5020905;28;19929;-66
2021/11/30 03:27:08;;;;;;;;;;;;;;;;;;5028402;28;19925;-66
2021/11/30 03:29:38;;;;;;;;;;;;;;;;;;5024879;28;19925;-66
2021/11/30 03:32:12;;;;;;;;;;;;;;;;;;5031535;28;19925;-66
2021/11/30 03:34:45;;;;;;;;;;;;;;;;;;5030535;28;19925;-66
2021/11/30 03:37:16;;;;;;;;;;;;;;;;;;5029375;28;20302;-66
2021/11/30 03:39:46;;;;;;;;;;;;;;;;;;5026425;28;19982;-65
2021/11/30 03:42:17;;;;;;;;;;;;;;;;;;5011792;28;20032;-66
2021/11/30 03:44:45;;;;;;;;;;;;;;;;;;5030876;28;19932;-66
2021/11/30 03:47:18;;;;;;;;;;;;;;;;;;5026824;28;19925;-66
2021/11/30 03:49:55;;;;;;;;;;;;;;;;;;5029017;28;19931;-66
2021/11/30 03:52:25;;;;;;;;;;;;;;;;;;5027749;28;19929;-65
2021/11/30 03:54:57;;;;;;;;;;;;;;;;;;5022067;28;19955;-66
2021/11/30 03:57:42;;;;;;;;;;;;;;;;;;5025318;28;19932;-66
2021/11/30 04:00:13;;;;;;;;;;;;;;;;;;5025822;28;19925;-65
2021/11/30 04:02:43;;;;;;;;;;;;;;;;;;5026865;28;19932;-65
2021/11/30 04:05:14;;;;;;;;;;;;;;;;;;5027034;28;20600;-66
2021/11/30 04:07:43;;;;;;;;;;;;;;;;;;5022411;28;20328;-65
2021/11/30 04:10:11;;;;;;;;;;;;;;;;;;5028716;28;19978;-65
2021/11/30 04:12:40;;;;;;;;;;;;;;;;;;5022085;28;19932;-66
2021/11/30 04:15:09;;;;;;;;;;;;;;;;;;5026357;28;19933;-66
2021/11/30 04:17:41;;;;;;;;;;;;;;;;;;5021405;28;20144;-65
2021/11/30 04:20:13;;;;;;;;;;;;;;;;;;5028622;28;20386;-66
2021/11/30 04:22:44;;;;;;;;;;;;;;;;;;5026021;28;20363;-65
2021/11/30 04:25:20;;;;;;;;;;;;;;;;;;5020421;28;19929;-65
2021/11/30 04:28:02;;;;;;;;;;;;;;;;;;5027646;28;19932;-65
2021/11/30 04:30:30;;;;;;;;;;;;;;;;;;5028434;28;20001;-66
2021/11/30 04:32:58;;;;;;;;;;;;;;;;;;5019190;28;19979;-66
2021/11/30 04:35:27;;;;;;;;;;;;;;;;;;5019247;28;19940;-66
2021/11/30 04:37:57;;;;;;;;;;;;;;;;;;5023143;28;19933;-65
2021/11/30 04:40:27;;;;;;;;;;;;;;;;;;5029016;28;19939;-66
2021/11/30 04:42:58;;;;;;;;;;;;;;;;;;5041695;28;19974;-66
2021/11/30 04:45:51;;;;;;;;;;;;;;;;;;5023952;28;19943;-66
2021/11/30 04:48:19;;;;;;;;;;;;;;;;;;5021753;28;19997;-66
2021/11/30 04:50:52;;;;;;;;;;;;;;;;;;5028232;28;19925;-66
2021/11/30 04:53:25;;;;;;;;;;;;;;;;;;5040635;28;20335;-66
2021/11/30 04:55:56;;;;;;;;;;;;;;;;;;5028094;28;19925;-66
2021/11/30 04:58:27;;;;;;;;;;;;;;;;;;5029512;28;19929;-66
2021/11/30 05:00:57;;;;;;;;;;;;;;;;;;5026003;28;19948;-66
2021/11/30 05:03:25;;;;;;;;;;;;;;;;;;5031746;28;19975;-66
2021/11/30 05:05:54;;;;;;;;;;;;;;;;;;5025229;28;19925;-66
2021/11/30 05:08:30;;;;;;;;;;;;;;;;;;5028660;28;19929;-66
2021/11/30 05:10:59;;;;;;;;;;;;;;;;;;5027642;28;19978;-66
2021/11/30 05:13:30;;;;;;;;;;;;;;;;;;5027171;28;19925;-66
2021/11/30 05:16:04;;;;;;;;;;;;;;;;;;5026079;28;20298;-66
2021/11/30 05:18:43;;;;;;;;;;;;;;;;;;5026171;28;20200;-66
2021/11/30 05:21:12;;;;;;;;;;;;;;;;;;5027059;28;19925;-66
2021/11/30 05:23:45;;;;;;;;;;;;;;;;;;5020060;28;19940;-66
2021/11/30 05:26:14;;;;;;;;;;;;;;;;;;5027020;28;19925;-66
2021/11/30 05:28:45;;;;;;;;;;;;;;;;;;5025804;28;19929;-66
2021/11/30 05:31:19;;;;;;;;;;;;;;;;;;5013906;28;19933;-66
2021/11/30 05:33:47;;;;;;;;;;;;;;;;;;5020799;28;19925;-66
2021/11/30 05:36:21;;;;;;;;;;;;;;;;;;5024174;28;20395;-66
2021/11/30 05:39:00;;;;;;;;;;;;;;;;;;5024941;28;19925;-66
2021/11/30 05:41:31;;;;;;;;;;;;;;;;;;5025063;28;19932;-66
2021/11/30 05:44:02;;;;;;;;;;;;;;;;;;5023174;28;19925;-66
2021/11/30 05:46:37;;;;;;;;;;;;;;;;;;5028442;28;19926;-66
2021/11/30 05:49:08;;;;;;;;;;;;;;;;;;5023848;28;20354;-66
2021/11/30 05:51:38;;;;;;;;;;;;;;;;;;5024814;28;20236;-66
2021/11/30 05:54:10;;;;;;;;;;;;;;;;;;5025286;28;20319;-66
2021/11/30 05:57:06;;;;;;;;;;;;;;;;;;5024168;28;20635;-66
2021/11/30 05:59:43;;;;;;;;;;;;;;;;;;5020113;28;19986;-66
2021/11/30 06:02:12;;;;;;;;;;;;;;;;;;5024864;28;20259;-66
2021/11/30 06:04:44;;;;;;;;;;;;;;;;;;5025811;28;19925;-66
2021/11/30 06:07:13;;;;;;;;;;;;;;;;;;5021962;28;20004;-65
2021/11/30 06:09:41;;;;;;;;;;;;;;;;;;5021007;28;19925;-66
2021/11/30 06:12:09;;;;;;;;;;;;;;;;;;5023845;28;19929;-65
2021/11/30 06:14:40;;;;;;;;;;;;;;;;;;5025858;28;19925;-66
2021/11/30 06:17:14;;;;;;;;;;;;;;;;;;5025124;28;20803;-65
2021/11/30 06:19:50;;;;;;;;;;;;;;;;;;5025518;28;19932;-66
2021/11/30 06:22:21;;;;;;;;;;;;;;;;;;5024573;28;20437;-65
2021/11/30 06:24:52;;;;;;;;;;;;;;;;;;5025391;28;20006;-67
2021/11/30 06:27:23;;;;;;;;;;;;;;;;;;5022514;28;19978;-65
2021/11/30 06:29:54;;;;;;;;;;;;;;;;;;5024783;28;20267;-66
2021/11/30 06:32:23;;;;;;;;;;;;;;;;;;5028320;28;19925;-67
2021/11/30 06:34:56;;;;;;;;;;;;;;;;;;5011118;28;19933;-67
2021/11/30 06:37:28;;;;;;;;;;;;;;;;;;5016359;28;19929;-67
2021/11/30 06:39:58;;;;;;;;;;;;;;;;;;5028154;28;19933;-67
2021/11/30 06:42:29;;;;;;;;;;;;;;;;;;5024193;28;19925;-67
2021/11/30 06:45:01;;;;;;;;;;;;;;;;;;5030359;28;20504;-68
2021/11/30 06:47:32;;;;;;;;;;;;;;;;;;5020120;28;19932;-67
2021/11/30 06:50:00;;;;;;;;;;;;;;;;;;5026383;28;19924;-67
2021/11/30 06:52:43;;;;;;;;;;;;;;;;;;5022115;28;19972;-67
2021/11/30 06:55:13;;;;;;;;;;;;;;;;;;5020839;28;19933;-67
2021/11/30 06:57:44;;;;;;;;;;;;;;;;;;5021144;28;20438;-68
2021/11/30 07:00:21;;;;;;;;;;;;;;;;;;5020891;28;19937;-67
2021/11/30 07:02:55;;;;;;;;;;;;;;;;;;5024155;28;19972;-67
2021/11/30 07:05:36;;;;;;;;;;;;;;;;;;5024588;28;19925;-67
2021/11/30 07:08:21;;;;;;;;;;;;;;;;;;5024949;28;19932;-68
2021/11/30 07:11:07;;;;;;;;;;;;;;;;;;5030766;28;19969;-68
2021/11/30 07:13:36;;;;;;;;;;;;;;;;;;5012801;28;19925;-67
2021/11/30 07:16:06;;;;;;;;;;;;;;;;;;5034115;28;19932;-65
2021/11/30 07:18:37;;;;;;;;;;;;;;;;;;5023515;28;19929;-65
2021/11/30 07:21:21;;;;;;;;;;;;;;;;;;5027480;28;19983;-67
2021/11/30 07:23:51;;;;;;;;;;;;;;;;;;5022251;28;19929;-66
2021/11/30 07:26:22;;;;;;;;;;;;;;;;;;5034047;28;20810;-70
2021/11/30 07:28:54;;;;;;;;;;;;;;;;;;5024261;28;19925;-72
2021/11/30 07:31:23;;;;;;;;;;;;;;;;;;5023552;28;19929;-69
2021/11/30 07:33:52;;;;;;;;;;;;;;;;;;5024011;28;19932;-71
2021/11/30 07:36:22;;;;;;;;;;;;;;;;;;5032805;28;19943;-71
2021/11/30 07:38:51;;;;;;;;;;;;;;;;;;5025937;28;19982;-70
2021/11/30 07:41:22;;;;;;;;;;;;;;;;;;5033540;28;19929;-70
2021/11/30 07:43:52;;;;;;;;;;;;;;;;;;5027157;28;19936;-71
2021/11/30 07:46:23;;;;;;;;;;;;;;;;;;5037742;28;20024;-69
2021/11/30 07:48:51;;;;;;;;;;;;;;;;;;5025715;28;19929;-69
2021/11/30 07:51:22;;;;;;;;;;;;;;;;;;5036179;28;19925;-67
2021/11/30 07:53:52;;;;;;;;;;;;;;;;;;5021326;28;19929;-68
2021/11/30 07:56:25;;;;;;;;;;;;;;;;;;5034032;28;19967;-70
2021/11/30 07:58:57;;;;;;;;;;;;;;;;;;5027368;28;19925;-69
2021/11/30 08:01:25;;;;;;;;;;;;;;;;;;5025380;28;19983;-72
2021/11/30 08:03:56;;;;;;;;;;;;;;;;;;5014604;28;19936;-70
2021/11/30 08:06:26;;;;;;;;;;;;;;;;;;5028814;28;20414;-69
2021/11/30 08:08:57;;;;;;;;;;;;;;;;;;5023446;28;20031;-69
2021/11/30 08:11:32;;;;;;;;;;;;;;;;;;5022084;28;19944;-69
2021/11/30 08:14:03;;;;;;;;;;;;;;;;;;5027151;28;19933;-69
2021/11/30 08:16:30;;;;;;;;;;;;;;;;;;5026119;28;19935;-70
2021/11/30 08:18:59;;;;;;;;;;;;;;;;;;5029023;28;19978;-70
2021/11/30 08:21:30;;;;;;;;;;;;;;;;;;5023559;28;19940;-69
2021/11/30 08:24:00;;;;;;;;;;;;;;;;;;5023578;28;19924;-67
2021/11/30 08:26:29;;;;;;;;;;;;;;;;;;5025757;28;19979;-69
2021/11/30 08:29:00;;;;;;;;;;;;;;;;;;5027633;28;19933;-69
2021/11/30 08:31:33;;;;;;;;;;;;;;;;;;5023696;28;20012;-70
2021/11/30 08:34:03;;;;;;;;;;;;;;;;;;5024616;28;19933;-70
2021/11/30 08:36:46;;;;;;;;;;;;;;;;;;5024419;28;20023;-70
2021/11/30 08:39:19;;;;;;;;;;;;;;;;;;5021232;28;19933;-68
2021/11/30 08:41:47;;;;;;;;;;;;;;;;;;5024734;28;20665;-70
2021/11/30 08:44:28;;;;;;;;;;;;;;;;;;5023860;28;19925;-70
2021/11/30 08:46:58;;;;;;;;;;;;;;;;;;5026714;28;19925;-69
2021/11/30 08:49:28;;;;;;;;;;;;;;;;;;5020656;28;19929;-67
2021/11/30 08:51:57;;;;;;;;;;;;;;;;;;5028847;28;20571;-67
2021/11/30 08:54:29;;;;;;;;;;;;;;;;;;5027674;28;19959;-67
2021/11/30 08:56:59;;;;;;;;;;;;;;;;;;5028262;28;19926;-70
2021/11/30 08:59:32;;;;;;;;;;;;;;;;;;5007790;28;20350;-69
2021/11/30 09:02:02;;;;;;;;;;;;;;;;;;5024821;28;19932;-66
2021/11/30 09:04:38;;;;;;;;;;;;;;;;;;5024440;28;19929;-66
2021/11/30 09:07:07;;;;;;;;;;;;;;;;;;5021007;28;19932;-68
2021/11/30 09:09:37;;;;;;;;;;;;;;;;;;5023377;28;19939;-66
2021/11/30 09:12:07;;;;;;;;;;;;;;;;;;5021468;28;19925;-66
2021/11/30 09:14:36;;;;;;;;;;;;;;;;;;5025100;28;19925;-67
2021/11/30 09:17:06;;;;;;;;;;;;;;;;;;5026162;28;19931;-68
2021/11/30 09:19:37;;;;;;;;;;;;;;;;;;5023452;28;19925;-67
2021/11/30 09:22:08;;;;;;;;;;;;;;;;;;5027793;28;19925;-68
2021/11/30 09:24:39;;;;;;;;;;;;;;;;;;5018567;28;19982;-69
2021/11/30 09:27:09;;;;;;;;;;;;;;;;;;5028315;28;19933;-65
2021/11/30 09:29:38;;;;;;;;;;;;;;;;;;5020253;28;19925;-65
2021/11/30 09:32:10;;;;;;;;;;;;;;;;;;5026711;28;20473;-69
2021/11/30 09:35:03;;;;;;;;;;;;;;;;;;5029564;28;19932;-69
2021/11/30 09:37:34;;;;;;;;;;;;;;;;;;5024135;28;19925;-69
2021/11/30 09:40:03;;;;;;;;;;;;;;;;;;5027857;28;19913;-69
2021/11/30 09:42:36;;;;;;;;;;;;;;;;;;5027879;28;20357;-67
2021/11/30 09:45:05;;;;;;;;;;;;;;;;;;5020828;28;20462;-67
2021/11/30 09:47:35;;;;;;;;;;;;;;;;;;5022483;28;19937;-66
2021/11/30 09:50:04;;;;;;;;;;;;;;;;;;5020359;28;20032;-66
2021/11/30 09:52:36;;;;;;;;;;;;;;;;;;5026177;28;19929;-67
2021/11/30 09:55:08;;;;;;;;;;;;;;;;;;5021093;28;19933;-68
2021/11/30 09:57:44;;;;;;;;;;;;;;;;;;5023342;28;19928;-70
2021/11/30 10:00:28;;;;;;;;;;;;;;;;;;5027686;28;19929;-67
2021/11/30 10:02:59;;;;;;;;;;;;;;;;;;5026854;28;19947;-66
2021/11/30 10:05:35;;;;;;;;;;;;;;;;;;5021928;28;20032;-68
2021/11/30 10:08:07;;;;;;;;;;;;;;;;;;5024295;28;19925;-70
2021/11/30 10:10:43;;;;;;;;;;;;;;;;;;5031122;28;19936;-66
2021/11/30 10:13:13;;;;;;;;;;;;;;;;;;5026289;28;19933;-66
2021/11/30 10:15:44;;;;;;;;;;;;;;;;;;5021510;28;19933;-67
2021/11/30 10:18:17;;;;;;;;;;;;;;;;;;5027415;28;19940;-70
2021/11/30 10:20:52;;;;;;;;;;;;;;;;;;5023967;28;19925;-72
2021/11/30 10:23:24;;;;;;;;;;;;;;;;;;5027305;28;19936;-74
2021/11/30 10:25:54;;;;;;;;;;;;;;;;;;5031228;28;19974;-68
2021/11/30 10:28:28;;;;;;;;;;;;;;;;;;5023897;28;19925;-68
2021/11/30 10:30:57;;;;;;;;;;;;;;;;;;5024098;28;19933;-69
2021/11/30 10:33:29;;;;;;;;;;;;;;;;;;5023196;28;19925;-69
2021/11/30 10:36:00;;;;;;;;;;;;;;;;;;5020552;28;19935;-70
2021/11/30 10:38:52;;;;;;;;;;;;;;;;;;5022347;28;20294;-68
2021/11/30 10:41:20;;;;;;;;;;;;;;;;;;5005992;28;19929;-67
2021/11/30 10:43:48;;;;;;;;;;;;;;;;;;5022791;28;19925;-68
2021/11/30 10:46:18;;;;;;;;;;;;;;;;;;5026504;28;20550;-67
2021/11/30 10:48:47;;;;;;;;;;;;;;;;;;5022515;28;19925;-67
2021/11/30 10:51:20;;;;;;;;;;;;;;;;;;5032040;28;20351;-66
2021/11/30 10:53:49;;;;;;;;;;;;;;;;;;5024480;28;19929;-67
2021/11/30 10:56:19;;;;;;;;;;;;;;;;;;5023791;28;19956;-65
2021/11/30 10:58:48;;;;;;;;;;;;;;;;;;5024941;28;19994;-66
2021/11/30 11:01:19;;;;;;;;;;;;;;;;;;5019346;28;19940;-69
2021/11/30 11:04:01;;;;;;;;;;;;;;;;;;5020046;28;19932;-67
2021/11/30 11:07:01;;;;;;;;;;;;;;;;;;5031340;28;19929;-67
2021/11/30 11:09:33;;;;;;;;;;;;;;;;;;5019766;28;19925;-67
2021/11/30 11:12:01;;;;;;;;;;;;;;;;;;5021408;28;19983;-66
2021/11/30 11:14:30;;;;;;;;;;;;;;;;;;5028875;28;19929;-67
2021/11/30 11:17:00;;;;;;;;;;;;;;;;;;5029960;28;19925;-67
2021/11/30 11:19:33;;;;;;;;;;;;;;;;;;5027618;28;20346;-66
2021/11/30 11:22:01;;;;;;;;;;;;;;;;;;5026819;28;19925;-66
2021/11/30 11:24:30;;;;;;;;;;;;;;;;;;5026953;28;19959;-66
2021/11/30 11:26:58;;;;;;;;;;;;;;;;;;5027854;28;19925;-68
2021/11/30 11:29:25;;;;;;;;;;;;;;;;;;5027761;28;19933;-68
2021/11/30 11:31:58;;;;;;;;;;;;;;;;;;5026525;28;19925;-69
2021/11/30 11:34:31;;;;;;;;;;;;;;;;;;5029544;28;19925;-69
2021/11/30 11:37:00;;;;;;;;;;;;;;;;;;5025136;28;19933;-66
2021/11/30 11:39:29;;;;;;;;;;;;;;;;;;5028179;28;19925;-66
2021/11/30 11:42:00;;;;;;;;;;;;;;;;;;5021599;28;19933;-67
2021/11/30 11:44:30;;;;;;;;;;;;;;;;;;5020992;28;19929;-67
2021/11/30 11:46:59;;;;;;;;;;;;;;;;;;5027358;28;19940;-67
2021/11/30 11:49:32;;;;;;;;;;;;;;;;;;5021008;28;19926;-66
2021/11/30 11:52:02;;;;;;;;;;;;;;;;;;5027066;28;19929;-69
2021/11/30 11:54:33;;;;;;;;;;;;;;;;;;5027567;28;19936;-68
2021/11/30 11:57:04;;;;;;;;;;;;;;;;;;5023105;28;19995;-68
2021/11/30 11:59:35;;;;;;;;;;;;;;;;;;5023029;28;20025;-67
2021/11/30 12:02:04;;;;;;;;;;;;;;;;;;5027871;28;20259;-67
2021/11/30 12:04:36;;;;;;;;;;;;;;;;;;5021618;28;19933;-67
2021/11/30 12:07:06;;;;;;;;;;;;;;;;;;5026432;28;19925;-67
2021/11/30 12:09:38;;;;;;;;;;;;;;;;;;5023731;28;19925;-69
2021/11/30 12:12:08;;;;;;;;;;;;;;;;;;5025115;28;20431;-68
2021/11/30 12:14:48;;;;;;;;;;;;;;;;;;5020204;28;20584;-67
2021/11/30 12:17:21;;;;;;;;;;;;;;;;;;5028119;28;20441;-67
2021/11/30 12:19:53;;;;;;;;;;;;;;;;;;5014841;28;19925;-68
2021/11/30 12:22:22;;;;;;;;;;;;;;;;;;5027415;28;19925;-68
2021/11/30 12:24:52;;;;;;;;;;;;;;;;;;5025298;28;19929;-69
2021/11/30 12:27:21;;;;;;;;;;;;;;;;;;5025594;28;19990;-65
2021/11/30 12:29:52;;;;;;;;;;;;;;;;;;5027467;28;19925;-67
2021/11/30 12:32:25;;;;;;;;;;;;;;;;;;5026680;28;19943;-71
2021/11/30 12:34:56;;;;;;;;;;;;;;;;;;5030599;28;19933;-71
2021/11/30 12:37:30;;;;;;;;;;;;;;;;;;5020990;28;20620;-70
2021/11/30 12:40:11;;;;;;;;;;;;;;;;;;5029046;28;19983;-71
2021/11/30 12:42:44;;;;;;;;;;;;;;;;;;5031353;28;20953;-71
2021/11/30 12:45:15;;;;;;;;;;;;;;;;;;5032322;28;19936;-70
2021/11/30 12:47:46;;;;;;;;;;;;;;;;;;5018024;28;20409;-68
2021/11/30 12:50:16;;;;;;;;;;;;;;;;;;5034796;28;19936;-67
2021/11/30 12:52:45;;;;;;;;;;;;;;;;;;5025893;28;19936;-67
2021/11/30 12:55:13;;;;;;;;;;;;;;;;;;5024056;28;19929;-71
2021/11/30 12:57:45;;;;;;;;;;;;;;;;;;5029168;28;20135;-70
2021/11/30 13:00:14;;;;;;;;;;;;;;;;;;5027672;28;20559;-70
2021/11/30 13:02:47;;;;;;;;;;;;;;;;;;5026210;28;19926;-68
2021/11/30 13:05:27;;;;;;;;;;;;;;;;;;5023351;28;19930;-69
2021/11/30 13:07:57;;;;;;;;;;;;;;;;;;5024232;28;19925;-70
2021/11/30 13:10:42;;;;;;;;;;;;;;;;;;5022510;28;19959;-70
2021/11/30 13:13:17;;;;;;;;;;;;;;;;;;5022761;28;19993;-69
2021/11/30 13:15:48;;;;;;;;;;;;;;;;;;5025259;28;19935;-69
2021/11/30 13:18:21;;;;;;;;;;;;;;;;;;5024541;28;19925;-70
2021/11/30 13:21:11;;;;;;;;;;;;;;;;;;5029015;28;19988;-70
2021/11/30 13:23:43;;;;;;;;;;;;;;;;;;5022349;28;19925;-72
2021/11/30 13:26:15;;;;;;;;;;;;;;;;;;5025496;28;20023;-70
2021/11/30 13:28:45;;;;;;;;;;;;;;;;;;5025627;28;20431;-70
2021/11/30 13:31:14;;;;;;;;;;;;;;;;;;5028194;28;19936;-71
2021/11/30 13:33:44;;;;;;;;;;;;;;;;;;5020688;28;19926;-71
2021/11/30 13:36:13;;;;;;;;;;;;;;;;;;5024097;28;19990;-69
2021/11/30 13:38:46;;;;;;;;;;;;;;;;;;5025743;28;19925;-71
2021/11/30 13:41:17;;;;;;;;;;;;;;;;;;5024006;28;19940;-67
2021/11/30 13:43:51;;;;;;;;;;;;;;;;;;5023545;28;19925;-67
2021/11/30 13:46:24;;;;;;;;;;;;;;;;;;5025147;28;19925;-70
2021/11/30 13:48:54;;;;;;;;;;;;;;;;;;5024534;28;19928;-70
2021/11/30 13:51:21;;;;;;;;;;;;;;;;;;5026445;28;19925;-69
2021/11/30 13:53:50;;;;;;;;;;;;;;;;;;5023176;28;19935;-69
2021/11/30 13:56:24;;;;;;;;;;;;;;;;;;5028830;28;19933;-72
2021/11/30 13:59:17;;;;;;;;;;;;;;;;;;5024371;28;19940;-72
2021/11/30 14:01:57;;;;;;;;;;;;;;;;;;5025281;28;19975;-68
2021/11/30 14:04:29;;;;;;;;;;;;;;;;;;5020954;28;19925;-69
2021/11/30 14:07:03;;;;;;;;;;;;;;;;;;5027058;28;19925;-71
2021/11/30 14:09:31;;;;;;;;;;;;;;;;;;5021716;28;19932;-71
2021/11/30 14:11:58;;;;;;;;;;;;;;;;;;5013580;28;19933;-72
2021/11/30 14:14:50;;;;;;;;;;;;;;;;;;5025150;28;19948;-70
2021/11/30 14:17:17;;;;;;;;;;;;;;;;;;5026856;28;19925;-68
2021/11/30 14:19:45;;;;;;;;;;;;;;;;;;5021921;28;19929;-67
2021/11/30 14:22:16;;;;;;;;;;;;;;;;;;4994975;28;19925;-70
2021/11/30 14:24:44;;;;;;;;;;;;;;;;;;5022764;28;19931;-69
2021/11/30 14:27:15;;;;;;;;;;;;;;;;;;5025255;28;20016;-69
2021/11/30 14:29:47;;;;;;;;;;;;;;;;;;5021584;28;19929;-69
2021/11/30 14:32:14;;;;;;;;;;;;;;;;;;5024052;28;20345;-69
2021/11/30 14:34:43;;;;;;;;;;;;;;;;;;5019468;28;19925;-69
2021/11/30 14:37:16;;;;;;;;;;;;;;;;;;5023863;28;20248;-69
2021/11/30 14:39:48;;;;;;;;;;;;;;;;;;5023257;28;19929;-67
2021/11/30 14:42:17;;;;;;;;;;;;;;;;;;5022808;28;19929;-66
2021/11/30 14:44:50;;;;;;;;;;;;;;;;;;5025418;28;19925;-66
2021/11/30 14:47:21;;;;;;;;;;;;;;;;;;5013643;28;19940;-67
2021/11/30 14:49:50;;;;;;;;;;;;;;;;;;5024513;28;20369;-67
2021/11/30 14:52:21;;;;;;;;;;;;;;;;;;5023665;28;19925;-68
2021/11/30 14:54:52;;;;;;;;;;;;;;;;;;5021578;28;20368;-69
2021/11/30 14:57:23;;;;;;;;;;;;;;;;;;5027557;28;19925;-68
2021/11/30 14:59:52;;;;;;;;;;;;;;;;;;5020913;28;19925;-67
2021/11/30 15:02:25;;;;;;;;;;;;;;;;;;5016083;28;19926;-69
2021/11/30 15:04:56;;;;;;;;;;;;;;;;;;5012043;28;20303;-67
2021/11/30 15:07:27;;;;;;;;;;;;;;;;;;5015606;28;19930;-69
2021/11/30 15:09:59;;;;;;;;;;;;;;;;;;5027158;28;20446;-67
2021/11/30 15:12:54;;;;;;;;;;;;;;;;;;5030867;28;19940;-69
2021/11/30 15:15:23;;;;;;;;;;;;;;;;;;5023699;28;19931;-66
2021/11/30 15:17:54;;;;;;;;;;;;;;;;;;5019560;28;19929;-64
2021/11/30 15:20:32;;;;;;;;;;;;;;;;;;5025144;28;19933;-63
2021/11/30 15:23:14;;;;;;;;;;;;;;;;;;5022262;28;19936;-63
2021/11/30 15:25:50;;;;;;;;;;;;;;;;;;5025700;28;19921;-65
2021/11/30 15:28:33;;;;;;;;;;;;;;;;;;5021437;28;19929;-65
2021/11/30 15:31:05;;;;;;;;;;;;;;;;;;5031124;28;20525;-67
2021/11/30 15:33:36;;;;;;;;;;;;;;;;;;5020739;28;19944;-69
2021/11/30 15:36:04;;;;;;;;;;;;;;;;;;5033649;28;20469;-72
2021/11/30 15:38:33;;;;;;;;;;;;;;;;;;5024793;28;19925;-72
2021/11/30 15:41:02;;;;;;;;;;;;;;;;;;5035118;28;19925;-70
2021/11/30 15:43:33;;;;;;;;;;;;;;;;;;5021907;28;20561;-72
2021/11/30 15:46:04;;;;;;;;;;;;;;;;;;5033380;28;19933;-69
2021/11/30 15:48:35;;;;;;;;;;;;;;;;;;5020894;28;19941;-67
2021/11/30 15:51:05;;;;;;;;;;;;;;;;;;5019578;28;19936;-67
2021/11/30 15:53:36;;;;;;;;;;;;;;;;;;5021085;28;20343;-66
2021/11/30 15:59:11;;;;;;;;;;;;;;;;;;5018618;28;19960;-66
2021/11/30 16:01:40;;;;;;;;;;;;;;;;;;5022576;28;19946;-66
2021/11/30 16:04:09;;;;;;;;;;;;;;;;;;5024188;28;20244;-65
2021/11/30 16:06:39;;;;;;;;;;;;;;;;;;5025522;28;19929;-64
2021/11/30 16:09:12;;;;;;;;;;;;;;;;;;5028890;28;19933;-69
2021/11/30 16:11:42;;;;;;;;;;;;;;;;;;5019218;28;19925;-66
2021/11/30 16:14:12;;;;;;;;;;;;;;;;;;5023446;28;19948;-67
2021/11/30 16:16:44;;;;;;;;;;;;;;;;;;5027832;28;20409;-66
2021/11/30 16:19:17;;;;;;;;;;;;;;;;;;5026047;28;19933;-64
2021/11/30 16:21:46;;;;;;;;;;;;;;;;;;5023950;28;19933;-63
2021/11/30 16:24:27;;;;;;;;;;;;;;;;;;5021411;28;19986;-63
2021/11/30 16:26:56;;;;;;;;;;;;;;;;;;5008393;28;19925;-63
2021/11/30 16:29:24;;;;;;;;;;;;;;;;;;5022319;28;20605;-63
2021/11/30 16:32:06;;;;;;;;;;;;;;;;;;5024863;28;20015;-63
2021/11/30 16:34:36;;;;;;;;;;;;;;;;;;5028434;28;20010;-63
2021/11/30 16:37:07;;;;;;;;;;;;;;;;;;5023727;28;19929;-63
2021/11/30 16:39:36;;;;;;;;;;;;;;;;;;5025272;28;19939;-63
2021/11/30 16:42:07;;;;;;;;;;;;;;;;;;5024595;28;19925;-63
2021/11/30 16:44:38;;;;;;;;;;;;;;;;;;5028130;28;19933;-64
2021/11/30 16:47:08;;;;;;;;;;;;;;;;;;5025850;28;20650;-63
2021/11/30 16:49:38;;;;;;;;;;;;;;;;;;5022599;28;19944;-63
2021/11/30 16:52:07;;;;;;;;;;;;;;;;;;5027570;28;19929;-63
2021/11/30 16:54:37;;;;;;;;;;;;;;;;;;5028178;28;19932;-63
2021/11/30 16:57:15;;;;;;;;;;;;;;;;;;5027050;28;19940;-63
2021/11/30 16:59:44;;;;;;;;;;;;;;;;;;5018434;28;19937;-63
2021/11/30 17:02:17;;;;;;;;;;;;;;;;;;5027761;28;20640;-63
2021/11/30 17:04:46;;;;;;;;;;;;;;;;;;5026981;28;19932;-63
2021/11/30 17:07:17;;;;;;;;;;;;;;;;;;5025577;28;20355;-64
2021/11/30 17:09:47;;;;;;;;;;;;;;;;;;5026855;28;19929;-63
2021/11/30 17:12:17;;;;;;;;;;;;;;;;;;5022992;28;19982;-63
2021/11/30 17:14:46;;;;;;;;;;;;;;;;;;5026451;28;19940;-63
2021/11/30 17:17:15;;;;;;;;;;;;;;;;;;5026595;28;19956;-63
2021/11/30 17:19:48;;;;;;;;;;;;;;;;;;5022280;28;19951;-63
2021/11/30 17:22:23;;;;;;;;;;;;;;;;;;5025014;28;19925;-63
2021/11/30 17:24:58;;;;;;;;;;;;;;;;;;5022451;28;21289;-63
2021/11/30 17:27:34;;;;;;;;;;;;;;;;;;5004493;28;20258;-63
2021/11/30 17:30:16;;;;;;;;;;;;;;;;;;5025618;28;19983;-63